Flight Track Log - Related Links

Times and Time Zones

All times are in EDT time to prevent confusion due to time zone crossing. See the EJA941 flight status page for this flight to view local times or setup timezone preferences in your user account.

Time Position Orientation Groundspeed Altitude Reporting Facility
EDT Latitude Longitude Course Direction KTS MPH feet Rate Location/Type
Sun 08:31:25 AM 38.9539 -77.5350 300° West 223 257 2,800  Level Washington Center
Sun 08:32:26 AM 38.9903 -77.6161 300° West 281 323 7,400 4,150 Climbing Washington Center
Sun 08:33:25 AM 39.0583 -77.6500 339° North 267 307 11,100 3,731 Climbing Washington Center
Sun 08:34:25 AM 39.1517 -77.6847 344° North 286 329 14,800 2,231 Climbing Washington Center
Sun 08:35:26 AM 39.2511 -77.7197 345° North 323 372 15,600 1,033 Climbing Washington Center
Sun 08:36:27 AM 39.3503 -77.7656 340° North 356 410 16,900 1,412 Climbing Washington Center
Sun 08:37:25 AM 39.4514 -77.8169 339° North 373 429 18,400 1,361 Climbing Washington Center
Sun 08:38:26 AM 39.5439 -77.8869 330° Northwest 384 442 19,600 1,402 Climbing Washington Center
Sun 08:41:46 AM 39.6800 -78.3336 292° West 397 457 24,500 1,459 Climbing Cleveland Center
Sun 08:42:45 AM 39.7181 -78.4672 290° West 397 457 25,900 1,513 Climbing Cleveland Center
Sun 08:43:45 AM 39.7603 -78.6036 292° West 403 464 27,500 1,500 Climbing Cleveland Center
Sun 08:44:45 AM 39.7958 -78.7431 288° West 403 464 28,900 1,190 Climbing Cleveland Center
Sun 08:45:46 AM 39.8356 -78.8772 291° West 403 464 29,900 893 Climbing Cleveland Center
Sun 08:46:46 AM 39.8792 -79.0222 291° West 408 470 30,700 1,200 Climbing Cleveland Center
Sun 08:47:46 AM 39.9186 -79.1592 291° West 408 470 32,300 1,563 Climbing Cleveland Center
Sun 08:48:45 AM 39.9600 -79.3019 291° West 408 470 33,800 1,513 Climbing Cleveland Center
Sun 08:49:45 AM 40.0092 -79.4283 297° West 408 470 35,300 1,100 Climbing Cleveland Center
Sun 08:50:45 AM 40.0750 -79.5522 305° West 408 470 36,000 843 Climbing Cleveland Center
Sun 08:51:46 AM 40.1408 -79.6786 304° West 413 475 37,000 500 Climbing Cleveland Center
Sun 08:52:45 AM 40.2083 -79.8111 304° West 430 495 37,000  Level Cleveland Center
Sun 08:53:45 AM 40.2758 -79.9436 304° West 437 503 37,000  Level Cleveland Center
Sun 08:54:46 AM 40.3433 -80.0872 302° West 437 503 37,000 500 Level Cleveland Center
Sun 08:55:45 AM 40.4106 -80.2203 304° West 448 516 38,000 500 Climbing Cleveland Center
Sun 08:56:46 AM 40.4650 -80.3267 304° West 448 516 38,000 1,587 Level Cleveland Center
Sun 08:57:46 AM 40.5383 -80.4628 305° West 438 504 41,200 2,168 Climbing Cleveland Center
Sun 08:58:45 AM 40.6008 -80.5967 302° West 414 476 42,300 908 Climbing Cleveland Center
Sun 08:59:45 AM 40.6486 -80.6953 303° West 391 450 43,000 350 Climbing Cleveland Center
Sun 09:00:45 AM 40.7214 -80.8350 305° West 404 465 43,000  Level Cleveland Center
Sun 09:01:45 AM 40.7878 -80.9669 304° West 420 483 43,000  Level Cleveland Center
Sun 09:02:45 AM 40.8600 -81.1183 302° West 442 509 43,000  Level Cleveland Center
Sun 09:03:46 AM 40.9472 -81.2292 316° Northwest 442 509 43,000  Level Cleveland Center
Sun 09:04:45 AM 41.0278 -81.3261 318° Northwest 436 502 43,000  Level Cleveland Center
Sun 09:05:46 AM 41.1147 -81.4264 319° Northwest 422 486 43,000  Level Cleveland Center
Sun 09:06:45 AM 41.2056 -81.5325 319° Northwest 427 491 43,000  Level Cleveland Center
Sun 09:07:45 AM 41.2922 -81.6333 319° Northwest 422 486 43,000  Level Cleveland Center
Sun 09:08:46 AM 41.3747 -81.7397 316° Northwest 417 480 43,000  Level Cleveland Center
Sun 09:09:45 AM 41.4650 -81.8550 316° Northwest 417 480 43,000  Level Cleveland Center
Sun 09:10:45 AM 41.5453 -81.9508 318° Northwest 400 460 43,000  Level Cleveland Center
Sun 09:11:45 AM 41.6192 -82.0442 317° Northwest 400 460 43,000  Level Cleveland Center
Sun 09:12:45 AM 41.7136 -82.1575 318° Northwest 400 460 43,000  Level Cleveland Center
Sun 09:13:45 AM 41.8017 -82.2683 317° Northwest 408 470 43,000  Level Cleveland Center
Sun 09:14:46 AM 41.8939 -82.3794 318° Northwest 428 493 43,000  Level Cleveland Center
Sun 09:15:46 AM 41.9858 -82.4911 318° Northwest 434 499 43,000  Level Cleveland Center
Sun 09:16:45 AM 42.0714 -82.6056 315° West 441 507 43,000  Level Cleveland Center
Sun 09:17:46 AM 42.1508 -82.7089 316° Northwest 446 513 43,000  Level Cleveland Center
Sun 09:18:45 AM 42.2425 -82.8186 318° Northwest 436 502 43,000  Level Cleveland Center
Sun 09:19:45 AM 42.3319 -82.9286 318° Northwest 436 502 43,000  Level Cleveland Center
Sun 09:20:46 AM 42.4214 -83.0414 317° Northwest 436 502 43,000  Level Cleveland Center
Sun 09:21:45 AM 42.5086 -83.1547 316° Northwest 436 502 43,000  Level Cleveland Center
Sun 09:22:45 AM 42.5956 -83.2656 317° Northwest 436 502 43,000  Level Cleveland Center
Sun 09:23:45 AM 42.6825 -83.3794 316° Northwest 436 502 43,000  Level Cleveland Center
Sun 09:24:45 AM 42.7694 -83.4936 316° Northwest 436 502 43,000  Level Cleveland Center
Sun 09:25:46 AM 42.8561 -83.6025 317° Northwest 436 502 43,000  Level Cleveland Center
Sun 09:26:46 AM 42.9428 -83.7172 316° Northwest 436 502 43,000  Level Cleveland Center
Sun 09:27:45 AM 43.0078 -83.8511 304° West 429 494 43,000  Level Cleveland Center
Sun 09:28:45 AM 43.0600 -83.9931 297° West 420 483 43,000  Level Cleveland Center
Sun 09:29:46 AM 43.1119 -84.1356 297° West 420 483 43,000  Level Cleveland Center
Sun 09:30:45 AM 43.1681 -84.2753 299° West 420 483 43,000  Level Cleveland Center
Sun 09:32:15 AM 43.2433 -84.4728 298° West 420 483 43,000  Level Chicago Center
Sun 09:33:17 AM 43.3081 -84.6433 298° West 421 484 43,000  Level Chicago Center
Sun 09:34:19 AM 43.3611 -84.7861 297° West 422 486 43,000  Level Chicago Center
Sun 09:35:20 AM 43.4144 -84.9308 297° West 426 490 43,000  Level Chicago Center
Sun 09:36:22 AM 43.4675 -85.0731 297° West 422 486 43,000  Level Chicago Center
Sun 09:37:24 AM 43.5214 -85.2175 297° West 425 489 43,000  Level Chicago Center
Sun 09:38:26 AM 43.5736 -85.3606 297° West 422 486 43,000  Level Chicago Center
Sun 09:39:27 AM 43.6364 -85.5325 297° West 422 486 43,000  Level Chicago Center
Sun 09:40:29 AM 43.6883 -85.6761 297° West 421 484 43,000  Level Chicago Center
Sun 09:41:31 AM 43.7397 -85.8189 297° West 419 482 43,000  Level Chicago Center
Sun 09:42:33 AM 43.7792 -85.9683 290° West 415 478 43,000  Level Chicago Center
Sun 09:43:35 AM 43.8144 -86.1194 288° West 413 475 43,000  Level Chicago Center
Sun 09:44:37 AM 43.8558 -86.3000 288° West 413 475 43,000  Level Chicago Center
Sun 09:45:39 AM 43.8917 -86.4522 288° West 417 480 43,000  Level Chicago Center
Sun 09:46:40 AM 43.9250 -86.6042 287° West 415 478 43,000  Level Chicago Center
Sun 09:47:42 AM 43.9592 -86.7564 287° West 415 478 43,000  Level Chicago Center
Sun 09:48:44 AM 43.9939 -86.9072 288° West 413 475 43,000  Level Chicago Center
Sun 09:49:46 AM 44.0253 -87.0614 286° West 415 478 43,000  Level Chicago Center
Sun 09:51:50 AM 44.1006 -87.4019 287° West 415 478 43,000  Level Chicago Center
Sun 09:52:52 AM 44.1344 -87.5550 287° West 415 478 43,000  Level Chicago Center
Sun 09:54:10 AM 44.1764 -87.7597 286° West 416 479 43,000  Level Minneapolis Center
Sun 09:55:11 AM 44.2097 -87.9167 287° West 421 484 43,000  Level Minneapolis Center
Sun 09:56:25 AM 44.2431 -88.0781 286° West 431 496 43,000  Level Minneapolis Center
Sun 09:57:26 AM 44.2842 -88.2686 287° West 438 504 43,000  Level Minneapolis Center
Sun 09:58:28 AM 44.3225 -88.4589 286° West 437 503 43,000  Level Minneapolis Center
Sun 09:59:29 AM 44.3569 -88.6236 286° West 442 509 43,000  Level Minneapolis Center
Sun 10:00:31 AM 44.3906 -88.7886 286° West 443 510 43,000  Level Minneapolis Center
Sun 10:01:44 AM 44.4239 -88.9550 286° West 444 511 43,000  Level Minneapolis Center
Sun 10:02:46 AM 44.4633 -89.1531 286° West 450 518 43,000  Level Minneapolis Center
Sun 10:03:48 AM 44.5017 -89.3539 285° West 455 524 43,000 -49 Level Minneapolis Center
Sun 10:04:49 AM 44.5350 -89.5261 285° West 459 528 42,900 -1,122 Descending Minneapolis Center
Sun 10:05:51 AM 44.5683 -89.6928 286° West 450 518 40,700 -2,195 Descending Minneapolis Center
Sun 10:06:52 AM 44.5986 -89.8547 285° West 435 501 38,400 -2,244 Descending Minneapolis Center
Sun 10:07:54 AM 44.6281 -90.0058 285° West 410 472 36,100 -2,226 Descending Minneapolis Center
Sun 10:08:56 AM 44.6561 -90.1592 284° West 405 466 33,800 -2,244 Descending Minneapolis Center
Sun 10:09:57 AM 44.6864 -90.3144 285° West 411 473 31,500 -2,293 Descending Minneapolis Center
Sun 10:10:59 AM 44.7203 -90.4931 285° West 406 467 29,100 -1,694 Descending Minneapolis Center
Sun 10:12:01 AM 44.7458 -90.6294 285° West 409 471 28,000 -1,073 Descending Minneapolis Center
Sun 10:13:02 AM 44.7753 -90.7861 285° West 415 478 26,900 -1,659 Descending Minneapolis Center
Sun 10:14:04 AM 44.8100 -90.9681 285° West 404 465 24,600 -1,984 Descending Minneapolis Center
Sun 10:15:06 AM 44.8389 -91.1169 285° West 399 459 22,800 -2,098 Descending Minneapolis Center
Sun 10:16:07 AM 44.8644 -91.2611 284° West 388 447 20,300 -2,488 Descending Minneapolis Center
Sun 10:17:09 AM 44.8903 -91.4047 284° West 382 440 17,700 -1,902 Descending Minneapolis Center
Sun 10:18:10 AM 44.9106 -91.5183 284° West 379 436 16,400 -1,790 Descending Minneapolis Center
Sun 10:19:13 AM 44.9406 -91.6819 285° West 367 422 14,000 -2,226 Descending Minneapolis Center
Sun 10:20:14 AM 44.9661 -91.8178 285° West 362 417 11,800 -1,463 Descending Minneapolis Center
Sun 10:21:16 AM 44.9950 -91.9781 284° West 351 404 11,000 -387 Descending Minneapolis Center
Sun 10:22:18 AM 45.0181 -92.1136 284° West 356 410 11,000  Level Minneapolis Center
Sun 10:23:20 AM 45.0422 -92.2525 284° West 364 419 11,000  Level Minneapolis Center
Sun 10:24:33 AM 45.0339 -92.3892 265° West 354 407 11,000  Level Minneapolis Center
Sun 10:25:36 AM 45.0083 -92.5481 257° West 347 399 11,000  Level Minneapolis Center
Sun 10:26:37 AM 44.9875 -92.6811 258° West 348 400 11,000 -488 Level Minneapolis Center
Sun 10:27:39 AM 44.9658 -92.8186 257° West 291 335 10,000 -1,403 Descending Minneapolis Center
Sun 10:28:41 AM 44.9483 -92.9206 256° West 269 310 8,100 -968 Descending Minneapolis Center
Sun 10:29:43 AM 44.9319 -93.0222 257° West 268 308 8,000 -44 Descending Minneapolis Center
Sun 10:30:57 AM 44.9519 -93.1158 287° West 269 310 8,000 -882 Level Minneapolis Center
Sun 10:31:59 AM 45.0003 -93.2192 304° West 266 306 6,000 -1,597 Descending Minneapolis Center
Sun 10:33:01 AM 45.0483 -93.3211 304° West 263 303 4,700 -968 Descending Minneapolis Center
Sun 10:34:03 AM 45.0564 -93.4053 278° West 243 280 4,000 -677 Descending Minneapolis Center
Sun 10:35:05 AM 44.9997 -93.4322 199° South 221 254 3,300 -488 Descending Minneapolis Center
Sun 10:36:06 AM 44.9608 -93.4050 154° Southeast 200 230 3,000 -435 Descending Minneapolis Center
Sun 10:37:09 AM 44.9292 -93.3300 121° Southeast 185 213 2,400 -581 Descending Minneapolis Center
Sun 10:38:10 AM 44.9122 -93.2911 122° Southeast 155 178 1,800 -590 Descending Minneapolis Center
Sun 10:40:00 AM 44.8820 -93.2218 123° Southeast  Level Estimated
Sun 10:47:00 AM 44.8820 -93.2218 123° Southeast  Level Estimated

Login

Don't have an account? Register now (free) for customized features, flight alerts, and more!